首页
METAR-TAF:

METAR-TAF

机场 :

卢森堡-芬德尔国际机场

卢森堡, 卢森堡

纬度: 49-37N, 经度: 006-13E, 海拔: 376米

当前天气观测

该预报发布于39分钟前的00:50 UTC
风速8节,风向北转西北
温度 2°C
湿度 93%
气压 1004 hPa
能見度: 6000
散云层高于900英尺
多云层高于1400英尺

METAR: ELLX 180050Z 33008KT 6000 SCT009 BKN014 02/01 Q1004 NOSIG

时间: 02:29 (01:29 UTC)

预报

该预报发布于2小时和29分钟前的23:00 UTC
预报有效从18日的 00点(UTC)到 19日的 06点(UTC)
风速10节,风向北转西北
能見度: 6000
多云层高于1000英尺
小雨
成为
从 18日的 00点(UTC)到 18日的 02点(UTC)
能見度: 4500
多云层高于800英尺
小雨, 雪
短暂存在
从 18日的 03点(UTC)到 18日的 12点(UTC)
能見度: 2500
多云层高于500英尺
小雪, 雨
几率 40% :
短暂存在
从 18日的 06点(UTC)到 18日的 10点(UTC)
能見度: 1000
多云层高于300英尺
雪, 雨
成为
从 18日的 08点(UTC)到 18日的 11点(UTC)
风速10节,风向西
能見度: 4500
小雨, 雪
成为
从 18日的 21点(UTC)到 18日的 24点(UTC)
能见度10公里或以上
散云层高于1000英尺

TAF: ELLX 172300Z 1800/1906 34010KT 6000 -RA BKN010 BECMG 1800/1802 4500 -RASN BKN008 TEMPO 1803/1812 2500 -SNRA BKN005 PROB40 TEMPO 1806/1810 1000 SNRA BKN003 BECMG 1808/1811 26010KT 4500 -RASN BECMG 1821/1824 9999 SCT010

超过4000个机场的气象观测和天气预报(METAR&TAF报告)。

可查询的气象台以黄色和红色小点在地图上表示。

将鼠标移到小点上方,可查看气象台名称。

然后点击查看天气观测和预报。

如需切换地图:点击带黑十字的绿色按钮放大地图;点击带横线的绿色按钮缩小地图;或者点击绿色箭头查看邻近地区的地图。


METAR-TAF: